Time;durP1;ratioP1;P1;durP2;ratioP2;P2;SDS_P1;SDS_P2;PMS_P1;PMS_P2;Temp;Humidity;BMP_temperature;BMP_pressure;BME280_temperature;BME280_humidity;BME280_pressure;Samples;Min_cycle;Max_cycle;Signal;HPM_P1;HPM_P2
2023/07/27 00:02:02;;;;;;;4.28;2.65;;;17.30;82.80;;;;;;5070284;28;20410;-67
2023/07/27 00:04:29;;;;;;;2.83;2.50;;;17.20;84.20;;;;;;5067544;28;20529;-67
2023/07/27 00:06:56;;;;;;;4.47;2.60;;;17.20;82.90;;;;;;5073099;28;20440;-67
2023/07/27 00:09:22;;;;;;;4.82;2.60;;;17.20;83.20;;;;;;5069088;28;20426;-67
2023/07/27 00:11:49;;;;;;;2.75;2.22;;;17.20;83.40;;;;;;5064376;28;20921;-68
2023/07/27 00:14:16;;;;;;;2.90;2.45;;;17.20;83.40;;;;;;5069144;28;20899;-67
2023/07/27 00:16:43;;;;;;;3.17;2.20;;;17.20;82.90;;;;;;5067157;28;20415;-68
2023/07/27 00:19:11;;;;;;;3.75;2.40;;;17.20;82.40;;;;;;5067957;28;20458;-68
2023/07/27 00:21:38;;;;;;;3.30;2.30;;;17.20;83.20;;;;;;5071822;28;20415;-68
2023/07/27 00:24:05;;;;;;;3.17;2.60;;;17.20;84.00;;;;;;5068983;28;20432;-67
2023/07/27 00:26:32;;;;;;;2.70;2.33;;;17.10;83.40;;;;;;5068569;28;20422;-68
2023/07/27 00:28:58;;;;;;;2.83;2.50;;;17.10;83.30;;;;;;5069169;28;20457;-68
2023/07/27 00:31:25;;;;;;;3.20;2.70;;;17.10;84.60;;;;;;5069197;28;20446;-67
2023/07/27 00:33:52;;;;;;;3.80;2.90;;;17.10;85.20;;;;;;5071870;28;20416;-68
2023/07/27 00:36:20;;;;;;;4.30;2.83;;;17.10;85.50;;;;;;5066820;28;20435;-68
2023/07/27 00:38:46;;;;;;;4.65;2.95;;;17.10;83.30;;;;;;5071752;28;20459;-67
2023/07/27 00:41:13;;;;;;;4.17;2.80;;;17.00;83.70;;;;;;5067709;28;20419;-68
2023/07/27 00:43:40;;;;;;;3.60;2.60;;;17.00;84.30;;;;;;5072708;28;20912;-68
2023/07/27 00:46:07;;;;;;;3.58;2.47;;;17.00;85.10;;;;;;5077041;28;20419;-67
2023/07/27 00:48:34;;;;;;;3.42;2.60;;;17.00;84.30;;;;;;5073897;28;20906;-67
2023/07/27 00:51:02;;;;;;;4.32;2.70;;;17.00;84.50;;;;;;5066525;28;20442;-67
2023/07/27 00:53:30;;;;;;;4.07;2.40;;;17.00;84.80;;;;;;5068429;28;20459;-67
2023/07/27 00:55:57;;;;;;;3.00;2.42;;;17.00;83.10;;;;;;5067580;28;20419;-67
2023/07/27 00:58:24;;;;;;;4.00;2.53;;;17.00;82.10;;;;;;5067513;28;20439;-67
2023/07/27 01:00:51;;;;;;;3.80;2.53;;;17.00;82.90;;;;;;5064624;28;20407;-66
2023/07/27 01:03:18;;;;;;;3.03;2.22;;;17.00;82.80;;;;;;5069061;28;20435;-66
2023/07/27 01:05:45;;;;;;;3.10;2.20;;;17.00;82.10;;;;;;5066720;28;20447;-68
2023/07/27 01:08:12;;;;;;;2.90;2.60;;;16.90;81.70;;;;;;5067468;28;20431;-67
2023/07/27 01:10:50;;;;;;;2.80;2.50;;;16.90;82.20;;;;;;5072221;28;20428;-67
2023/07/27 01:13:25;;;;;;;4.30;3.63;;;17.00;82.00;;;;;;5068167;28;20408;-67
2023/07/27 01:15:58;;;;;;;3.80;2.45;;;16.90;82.50;;;;;;5069615;28;20415;-67
2023/07/27 01:18:30;;;;;;;2.60;2.40;;;16.90;81.30;;;;;;5063393;28;20427;-67
2023/07/27 01:21:07;;;;;;;3.33;2.40;;;16.90;80.70;;;;;;5066202;28;20427;-67
2023/07/27 01:23:51;;;;;;;3.30;2.22;;;16.90;80.10;;;;;;5061475;28;20423;-68
2023/07/27 01:26:50;;;;;;;2.25;2.03;;;16.90;81.00;;;;;;5063385;28;20423;-67
2023/07/27 01:29:43;;;;;;;2.83;2.30;;;16.90;80.50;;;;;;5055155;28;20420;-67
2023/07/27 01:32:13;;;;;;;4.45;3.15;;;16.90;81.30;;;;;;5067978;28;20434;-68
2023/07/27 01:34:43;;;;;;;4.22;2.30;;;16.90;81.70;;;;;;5071509;28;20777;-67
2023/07/27 01:37:12;;;;;;;2.60;2.22;;;16.90;82.10;;;;;;5067066;28;20443;-68
2023/07/27 01:39:42;;;;;;;3.10;2.60;;;16.90;81.40;;;;;;5067345;28;20415;-68
2023/07/27 01:42:13;;;;;;;3.60;2.22;;;16.90;80.80;;;;;;5067151;28;20422;-68
2023/07/27 01:44:40;;;;;;;4.10;2.30;;;17.00;81.00;;;;;;5067469;28;20787;-68
2023/07/27 01:47:08;;;;;;;3.30;2.60;;;17.00;82.30;;;;;;5066193;28;20435;-68
2023/07/27 01:49:40;;;;;;;4.40;2.53;;;17.00;81.50;;;;;;5067553;28;20905;-67
2023/07/27 01:52:08;;;;;;;3.20;2.60;;;17.00;81.40;;;;;;5064934;28;20423;-67
2023/07/27 01:54:35;;;;;;;3.80;2.50;;;17.00;82.30;;;;;;5069673;28;20497;-68
2023/07/27 01:57:04;;;;;;;2.88;2.40;;;17.00;81.30;;;;;;5070638;28;20591;-68
2023/07/27 01:59:32;;;;;;;3.13;2.63;;;16.90;81.90;;;;;;5074264;28;20454;-68
2023/07/27 02:01:59;;;;;;;4.50;2.50;;;16.90;82.20;;;;;;5078043;28;20426;-68
2023/07/27 02:04:26;;;;;;;4.13;2.70;;;16.90;83.50;;;;;;5070974;28;20431;-68
2023/07/27 02:06:54;;;;;;;3.97;2.63;;;16.90;84.10;;;;;;5068305;28;20434;-68
2023/07/27 02:09:21;;;;;;;4.57;2.80;;;16.90;83.20;;;;;;5076390;28;20898;-68
2023/07/27 02:11:55;;;;;;;3.95;2.63;;;16.90;84.10;;;;;;5071476;28;20442;-68
2023/07/27 02:14:28;;;;;;;2.78;2.50;;;16.90;84.70;;;;;;5063933;28;20415;-68
2023/07/27 02:17:00;;;;;;;4.03;2.70;;;16.90;84.30;;;;;;5077262;28;20520;-68
2023/07/27 02:19:30;;;;;;;3.65;2.55;;;16.90;85.60;;;;;;5071000;28;20694;-69
2023/07/27 02:21:59;;;;;;;3.83;3.20;;;16.80;85.80;;;;;;5074371;28;20426;-68
2023/07/27 02:24:27;;;;;;;4.65;2.78;;;16.80;84.60;;;;;;5071142;28;20921;-68
2023/07/27 02:26:53;;;;;;;3.55;2.80;;;16.80;86.30;;;;;;5072279;28;20427;-68
2023/07/27 02:29:20;;;;;;;4.20;2.80;;;16.80;85.50;;;;;;5072395;28;20419;-68
2023/07/27 02:31:47;;;;;;;3.90;2.70;;;16.80;86.30;;;;;;5078039;28;20418;-68
2023/07/27 02:34:14;;;;;;;3.55;2.25;;;16.80;84.00;;;;;;5073298;28;20805;-68
2023/07/27 02:36:40;;;;;;;3.10;2.30;;;16.80;83.00;;;;;;5068643;28;20435;-67
2023/07/27 02:39:08;;;;;;;3.97;2.53;;;16.80;84.60;;;;;;5066206;28;20438;-67
2023/07/27 02:41:35;;;;;;;2.55;2.30;;;16.80;84.50;;;;;;5068927;28;20435;-67
2023/07/27 02:44:02;;;;;;;3.70;2.72;;;16.80;86.60;;;;;;5078304;28;20427;-67
2023/07/27 02:46:28;;;;;;;3.60;2.67;;;16.70;87.80;;;;;;5081380;28;20956;-66
2023/07/27 02:48:55;;;;;;;4.05;2.97;;;16.70;86.30;;;;;;5074992;28;20423;-68
2023/07/27 02:51:23;;;;;;;3.17;2.50;;;16.70;87.40;;;;;;5073289;28;20435;-66
2023/07/27 02:53:49;;;;;;;4.50;3.10;;;16.60;90.00;;;;;;5074039;28;20453;-66
2023/07/27 02:56:17;;;;;;;5.25;2.90;;;16.50;91.50;;;;;;5070612;28;20431;-68
2023/07/27 02:58:44;;;;;;;4.37;2.90;;;16.30;93.10;;;;;;5071095;28;21135;-68
2023/07/27 03:01:11;;;;;;;5.20;3.00;;;16.20;93.60;;;;;;5069715;28;21058;-68
2023/07/27 03:03:38;;;;;;;3.67;2.90;;;16.10;95.00;;;;;;5070471;28;20565;-68
2023/07/27 03:06:04;;;;;;;4.40;3.70;;;15.90;96.90;;;;;;5068356;28;20528;-68
2023/07/27 03:08:32;;;;;;;4.05;3.40;;;15.70;98.10;;;;;;5072587;28;20437;-68
2023/07/27 03:11:02;;;;;;;4.57;4.07;;;15.60;99.50;;;;;;5071481;28;21042;-67
2023/07/27 03:13:30;;;;;;;3.80;3.20;;;15.60;99.90;;;;;;5070040;28;20451;-69
2023/07/27 03:15:57;;;;;;;5.22;3.70;;;15.50;99.90;;;;;;5068295;28;20423;-67
2023/07/27 03:18:24;;;;;;;4.20;3.80;;;15.40;99.90;;;;;;5074210;28;20441;-68
2023/07/27 03:20:51;;;;;;;5.25;4.10;;;15.40;99.90;;;;;;5075606;28;20438;-68
2023/07/27 03:23:17;;;;;;;5.00;4.40;;;15.40;99.90;;;;;;5065433;28;20438;-68
2023/07/27 03:25:44;;;;;;;4.00;3.60;;;15.30;99.90;;;;;;5068497;28;20704;-68
2023/07/27 03:28:11;;;;;;;5.80;3.80;;;15.30;99.90;;;;;;5069567;28;20421;-68
2023/07/27 03:30:40;;;;;;;4.50;3.70;;;15.20;99.90;;;;;;5072428;28;20483;-68
2023/07/27 03:33:07;;;;;;;5.47;3.78;;;15.20;99.90;;;;;;5072188;28;20420;-68
2023/07/27 03:35:35;;;;;;;4.28;3.88;;;15.20;99.90;;;;;;5069026;28;20419;-68
2023/07/27 03:38:03;;;;;;;5.10;4.22;;;15.20;99.90;;;;;;5067684;28;20427;-67
2023/07/27 03:40:29;;;;;;;5.00;4.38;;;15.20;99.90;;;;;;5068840;28;20420;-68
2023/07/27 03:42:56;;;;;;;4.75;4.00;;;15.20;99.90;;;;;;5072672;28;20422;-67
2023/07/27 03:45:23;;;;;;;4.18;3.55;;;15.20;99.90;;;;;;5067509;28;20917;-67
2023/07/27 03:47:51;;;;;;;4.88;4.10;;;15.20;99.90;;;;;;5069360;28;20905;-67
2023/07/27 03:50:17;;;;;;;6.30;4.20;;;15.20;99.90;;;;;;5076598;28;20415;-67
2023/07/27 03:52:44;;;;;;;4.10;3.70;;;15.10;99.90;;;;;;5063396;28;20431;-67
2023/07/27 03:55:12;;;;;;;4.80;4.30;;;15.10;99.90;;;;;;5068478;28;20909;-69
2023/07/27 03:57:38;;;;;;;4.53;4.13;;;15.10;99.90;;;;;;5068885;28;20419;-68
2023/07/27 04:00:06;;;;;;;6.18;4.80;;;15.10;99.90;;;;;;5067005;28;20711;-67
2023/07/27 04:02:33;;;;;;;6.75;4.90;;;15.00;99.90;;;;;;5066864;28;20634;-67
2023/07/27 04:05:01;;;;;;;5.40;4.90;;;15.00;99.90;;;;;;5067722;28;20428;-67
2023/07/27 04:07:28;;;;;;;6.28;5.18;;;15.00;99.90;;;;;;5069163;28;20507;-67
2023/07/27 04:09:55;;;;;;;5.37;4.63;;;15.00;99.90;;;;;;5071745;28;20420;-67
2023/07/27 04:12:21;;;;;;;6.80;4.90;;;14.90;99.90;;;;;;5070244;28;20411;-68
2023/07/27 04:14:49;;;;;;;7.93;6.15;;;14.90;99.90;;;;;;5068308;28;20427;-68
2023/07/27 04:17:16;;;;;;;6.13;5.30;;;14.90;99.90;;;;;;5068506;28;20416;-68
2023/07/27 04:19:42;;;;;;;6.00;5.40;;;14.90;99.90;;;;;;5067779;28;20946;-68
2023/07/27 04:22:11;;;;;;;5.30;4.70;;;14.90;99.90;;;;;;5072918;28;20469;-68
2023/07/27 04:24:38;;;;;;;5.07;4.57;;;14.90;99.90;;;;;;5067646;28;20423;-69
2023/07/27 04:27:05;;;;;;;5.10;4.57;;;14.90;99.90;;;;;;5068186;28;20445;-68
2023/07/27 04:29:32;;;;;;;5.82;5.32;;;14.90;99.90;;;;;;5068238;28;20416;-69
2023/07/27 04:31:59;;;;;;;6.30;5.40;;;14.90;99.90;;;;;;5027248;22;1772946;-75
2023/07/27 04:34:26;;;;;;;5.55;5.05;;;14.80;99.90;;;;;;5072105;28;20439;-76
2023/07/27 04:36:52;;;;;;;6.80;5.30;;;14.80;99.90;;;;;;5075774;28;20426;-76
2023/07/27 04:39:20;;;;;;;6.40;5.50;;;14.80;99.90;;;;;;5071699;28;20501;-76
2023/07/27 04:41:47;;;;;;;6.40;5.00;;;14.80;99.90;;;;;;5075294;28;20514;-76
2023/07/27 04:44:14;;;;;;;7.60;5.30;;;14.80;99.90;;;;;;5071737;28;20556;-74
2023/07/27 04:46:40;;;;;;;6.23;5.40;;;14.70;99.90;;;;;;5077551;28;20700;-74
2023/07/27 04:49:07;;;;;;;6.20;5.60;;;14.80;99.90;;;;;;5076395;28;20691;-74
2023/07/27 04:51:34;;;;;;;5.68;4.65;;;14.70;99.90;;;;;;5072095;28;20422;-74
2023/07/27 04:54:01;;;;;;;6.80;5.40;;;14.60;99.90;;;;;;5061486;28;20531;-74
2023/07/27 04:56:30;;;;;;;6.30;5.38;;;14.60;99.90;;;;;;5072174;28;20410;-74
2023/07/27 04:58:57;;;;;;;8.70;6.23;;;14.60;99.90;;;;;;5064011;28;20559;-73
2023/07/27 05:01:24;;;;;;;7.00;6.30;;;14.60;99.90;;;;;;5068003;28;20473;-74
2023/07/27 05:03:52;;;;;;;7.32;6.40;;;14.60;99.90;;;;;;5062831;28;20427;-75
2023/07/27 05:06:18;;;;;;;7.85;6.45;;;14.50;99.90;;;;;;5069783;28;20425;-73
2023/07/27 05:08:45;;;;;;;8.50;6.35;;;14.50;99.90;;;;;;5076009;28;20920;-74
2023/07/27 05:11:12;;;;;;;7.32;6.55;;;14.50;99.90;;;;;;5052904;28;20435;-74
2023/07/27 05:13:40;;;;;;;8.38;7.55;;;14.50;99.90;;;;;;5064562;28;20440;-73
2023/07/27 05:16:07;;;;;;;9.02;7.20;;;14.40;99.90;;;;;;5064462;28;20973;-73
2023/07/27 05:18:34;;;;;;;8.80;7.32;;;14.40;99.90;;;;;;5064308;28;20445;-73
2023/07/27 05:21:00;;;;;;;9.05;7.22;;;14.40;99.90;;;;;;5079679;28;20425;-73
2023/07/27 05:23:27;;;;;;;8.90;7.13;;;14.40;99.90;;;;;;5071819;28;20744;-73
2023/07/27 05:25:54;;;;;;;8.13;7.30;;;14.40;99.90;;;;;;5078481;28;20746;-73
2023/07/27 05:28:21;;;;;;;7.80;7.00;;;14.40;99.90;;;;;;5061532;28;20919;-75
2023/07/27 05:30:49;;;;;;;7.45;6.75;;;14.40;99.90;;;;;;5062722;28;20912;-75
2023/07/27 05:33:16;;;;;;;7.70;7.00;;;14.40;99.90;;;;;;5072757;28;20422;-75
2023/07/27 05:35:47;;;;;;;9.10;8.20;;;14.40;99.90;;;;;;5071007;28;20427;-75
2023/07/27 05:38:14;;;;;;;8.18;7.32;;;14.40;99.90;;;;;;5074042;28;20537;-73
2023/07/27 05:40:40;;;;;;;8.90;7.03;;;14.40;99.90;;;;;;5064626;28;20919;-75
2023/07/27 05:43:07;;;;;;;9.30;7.93;;;14.40;99.90;;;;;;5068761;28;20449;-73
2023/07/27 05:45:34;;;;;;;8.70;7.50;;;14.40;99.90;;;;;;5071271;28;20808;-73
2023/07/27 05:48:02;;;;;;;8.93;8.02;;;14.40;99.90;;;;;;5072376;28;20414;-73
2023/07/27 05:50:29;;;;;;;9.20;7.38;;;14.30;99.90;;;;;;5073454;28;20455;-74
2023/07/27 05:52:55;;;;;;;8.05;6.97;;;14.30;99.90;;;;;;5074282;28;20422;-73
2023/07/27 05:55:22;;;;;;;7.75;6.95;;;14.30;99.90;;;;;;5073265;28;20472;-73
2023/07/27 05:57:49;;;;;;;9.88;7.93;;;14.30;99.90;;;;;;5072345;28;20913;-73
2023/07/27 06:00:16;;;;;;;9.70;7.25;;;14.30;99.90;;;;;;5062606;28;20795;-73
2023/07/27 06:02:43;;;;;;;8.57;7.40;;;14.30;99.90;;;;;;5060918;28;20874;-76
2023/07/27 06:05:12;;;;;;;8.32;7.50;;;14.30;99.90;;;;;;5067532;28;20423;-73
2023/07/27 06:07:38;;;;;;;8.37;7.50;;;14.40;99.90;;;;;;5065799;28;20526;-73
2023/07/27 06:10:06;;;;;;;11.13;8.00;;;14.40;99.90;;;;;;5067581;28;20564;-73
2023/07/27 06:12:33;;;;;;;9.32;7.75;;;14.40;99.90;;;;;;5059854;28;20428;-73
2023/07/27 06:15:00;;;;;;;8.45;7.60;;;14.40;99.90;;;;;;5056917;28;20447;-73
2023/07/27 06:17:27;;;;;;;9.20;7.80;;;14.40;99.90;;;;;;5075641;28;20455;-74
2023/07/27 06:19:54;;;;;;;8.73;7.30;;;14.40;99.90;;;;;;5075761;28;20500;-73
2023/07/27 06:22:22;;;;;;;9.23;8.05;;;14.50;99.90;;;;;;5081363;28;20732;-73
2023/07/27 06:24:48;;;;;;;10.73;7.93;;;14.40;99.90;;;;;;5072583;28;20443;-73
2023/07/27 06:27:15;;;;;;;9.63;8.27;;;14.50;99.90;;;;;;5073951;28;20893;-73
2023/07/27 06:29:42;;;;;;;8.77;7.87;;;14.50;99.90;;;;;;5077813;28;20434;-73
2023/07/27 06:32:09;;;;;;;8.10;7.30;;;14.50;99.90;;;;;;5073163;28;20928;-73
2023/07/27 06:34:35;;;;;;;9.30;8.27;;;14.50;99.90;;;;;;5071488;28;20445;-72
2023/07/27 06:37:02;;;;;;;8.70;7.90;;;14.40;99.90;;;;;;5078312;28;20424;-72
2023/07/27 06:39:30;;;;;;;9.30;8.40;;;14.40;99.90;;;;;;5072385;28;20463;-73
2023/07/27 06:41:57;;;;;;;10.40;9.40;;;14.40;99.90;;;;;;5079202;28;20417;-73
2023/07/27 06:44:24;;;;;;;9.32;8.40;;;14.40;99.90;;;;;;5068256;28;20499;-73
2023/07/27 06:46:50;;;;;;;10.00;9.00;;;14.40;99.90;;;;;;5061542;28;20432;-72
2023/07/27 06:49:17;;;;;;;10.70;9.60;;;14.50;99.90;;;;;;5073677;28;20421;-73
2023/07/27 06:51:44;;;;;;;10.40;9.40;;;14.50;99.90;;;;;;5069867;28;20535;-73
2023/07/27 06:54:11;;;;;;;10.73;9.73;;;14.60;99.90;;;;;;5066238;28;20423;-74
2023/07/27 06:56:39;;;;;;;9.63;8.73;;;14.60;99.90;;;;;;5069970;28;20434;-74
2023/07/27 06:59:05;;;;;;;10.80;9.70;;;14.70;99.90;;;;;;5073008;28;20894;-73
2023/07/27 07:01:32;;;;;;;11.18;9.98;;;14.70;99.90;;;;;;5076608;28;20856;-73
2023/07/27 07:03:59;;;;;;;10.15;9.25;;;14.70;99.90;;;;;;5069237;28;20431;-73
2023/07/27 07:06:26;;;;;;;10.40;9.40;;;14.70;99.90;;;;;;5070671;28;20452;-73
2023/07/27 07:08:52;;;;;;;10.38;9.45;;;14.70;99.90;;;;;;5057279;28;20438;-73
2023/07/27 07:11:19;;;;;;;10.30;9.40;;;14.80;99.90;;;;;;5066715;28;20430;-73
2023/07/27 07:13:47;;;;;;;10.50;9.40;;;14.80;99.90;;;;;;5073424;28;20431;-73
2023/07/27 07:16:15;;;;;;;10.73;9.70;;;14.90;99.90;;;;;;5081233;28;20408;-73
2023/07/27 07:18:42;;;;;;;9.45;8.60;;;14.90;99.90;;;;;;5073073;28;20534;-73
2023/07/27 07:21:08;;;;;;;9.30;8.40;;;15.00;99.90;;;;;;5080232;28;20415;-74
2023/07/27 07:23:35;;;;;;;8.55;7.85;;;15.00;99.90;;;;;;5060550;28;20761;-73
2023/07/27 07:26:02;;;;;;;8.30;7.40;;;15.00;99.90;;;;;;5073697;28;20422;-73
2023/07/27 07:28:28;;;;;;;8.20;7.50;;;15.10;99.90;;;;;;5074673;28;20897;-73
2023/07/27 07:30:57;;;;;;;10.03;8.23;;;15.10;99.90;;;;;;5070439;28;20461;-74
2023/07/27 07:33:24;;;;;;;7.40;6.70;;;15.10;99.90;;;;;;5073676;28;20414;-74
2023/07/27 07:35:51;;;;;;;7.45;6.75;;;15.20;99.90;;;;;;5067034;28;20577;-75
2023/07/27 07:38:18;;;;;;;7.50;6.72;;;15.20;99.90;;;;;;5069791;28;20495;-74
2023/07/27 07:40:46;;;;;;;7.78;6.97;;;15.20;99.90;;;;;;5070431;28;20444;-74
2023/07/27 07:43:13;;;;;;;6.82;6.22;;;15.30;99.90;;;;;;5076045;28;20936;-74
2023/07/27 07:45:39;;;;;;;6.95;6.25;;;15.30;99.90;;;;;;5067065;28;20447;-74
2023/07/27 07:48:07;;;;;;;7.25;6.55;;;15.30;99.90;;;;;;5071292;28;20744;-74
2023/07/27 07:50:37;;;;;;;6.47;5.88;;;15.30;99.90;;;;;;5077481;28;20911;-74
2023/07/27 07:53:05;;;;;;;6.28;5.68;;;15.30;99.90;;;;;;5070198;28;20428;-74
2023/07/27 07:55:35;;;;;;;6.30;5.70;;;15.30;99.90;;;;;;5069413;28;20744;-75
2023/07/27 07:58:02;;;;;;;5.63;5.13;;;15.30;99.90;;;;;;5071388;28;20589;-73
2023/07/27 08:00:28;;;;;;;6.50;5.83;;;15.30;99.90;;;;;;5063468;28;20422;-73
2023/07/27 08:02:55;;;;;;;6.80;6.20;;;15.30;99.90;;;;;;5061820;28;20544;-73
2023/07/27 08:05:24;;;;;;;7.15;6.45;;;15.30;99.90;;;;;;5065281;28;20869;-74
2023/07/27 08:07:51;;;;;;;7.15;5.85;;;15.40;99.90;;;;;;5069394;28;20435;-73
2023/07/27 08:10:18;;;;;;;7.73;5.63;;;15.40;99.90;;;;;;5066068;28;20466;-73
2023/07/27 08:12:45;;;;;;;9.13;6.10;;;15.40;99.90;;;;;;5073524;28;20413;-73
2023/07/27 08:15:12;;;;;;;6.90;6.20;;;15.40;99.90;;;;;;5069650;28;20418;-73
2023/07/27 08:17:39;;;;;;;6.60;6.00;;;15.40;99.90;;;;;;5069192;28;20439;-73
2023/07/27 08:20:07;;;;;;;6.43;5.77;;;15.50;99.90;;;;;;5063626;28;20843;-73
2023/07/27 08:22:35;;;;;;;9.20;6.47;;;15.50;99.90;;;;;;5075695;28;20524;-73
2023/07/27 08:25:04;;;;;;;6.80;6.25;;;15.50;99.90;;;;;;5057534;28;20443;-73
2023/07/27 08:27:34;;;;;;;7.63;6.83;;;15.50;99.90;;;;;;5070706;28;20457;-73
2023/07/27 08:30:00;;;;;;;6.78;6.18;;;15.60;99.90;;;;;;5058640;28;20460;-75
2023/07/27 08:32:27;;;;;;;7.40;6.70;;;15.60;99.90;;;;;;5058644;28;20440;-72
2023/07/27 08:34:54;;;;;;;7.40;6.70;;;15.60;99.90;;;;;;5051269;28;20979;-73
2023/07/27 08:37:21;;;;;;;7.97;7.28;;;15.60;99.90;;;;;;5062975;28;20805;-73
2023/07/27 08:39:49;;;;;;;8.43;6.68;;;15.70;99.90;;;;;;5059094;28;20435;-73
2023/07/27 08:42:16;;;;;;;8.23;7.55;;;15.70;99.90;;;;;;5058900;28;20571;-73
2023/07/27 08:44:44;;;;;;;8.40;7.70;;;15.70;99.90;;;;;;5061261;28;20500;-73
2023/07/27 08:47:11;;;;;;;9.63;8.73;;;15.70;99.90;;;;;;5064259;28;20504;-73
2023/07/27 08:49:39;;;;;;;9.73;8.85;;;15.60;99.90;;;;;;5074654;28;20414;-73
2023/07/27 08:52:08;;;;;;;9.25;8.35;;;15.60;99.90;;;;;;5072077;28;20961;-73
2023/07/27 08:54:35;;;;;;;8.63;7.72;;;15.70;99.90;;;;;;5074388;28;20478;-73
2023/07/27 08:57:03;;;;;;;8.48;7.78;;;15.70;99.90;;;;;;5063636;28;20427;-74
2023/07/27 08:59:30;;;;;;;8.70;7.90;;;15.70;99.90;;;;;;5066483;28;20437;-74
2023/07/27 09:01:57;;;;;;;8.07;7.37;;;15.70;99.90;;;;;;5067374;28;20913;-73
2023/07/27 09:04:23;;;;;;;8.85;8.15;;;15.80;99.90;;;;;;5067133;28;20433;-74
2023/07/27 09:06:50;;;;;;;7.80;7.00;;;15.80;99.90;;;;;;5070257;28;20426;-74
2023/07/27 09:09:20;;;;;;;8.68;7.97;;;15.80;99.90;;;;;;5059597;28;20936;-73
2023/07/27 09:11:47;;;;;;;8.48;7.78;;;15.80;99.90;;;;;;5068866;28;20528;-73
2023/07/27 09:14:16;;;;;;;8.50;7.70;;;15.90;99.90;;;;;;5060383;28;21251;-73
2023/07/27 09:16:44;;;;;;;8.40;7.60;;;15.90;99.90;;;;;;5064943;28;20435;-74
2023/07/27 09:19:12;;;;;;;7.90;7.10;;;15.90;99.90;;;;;;5060827;28;20431;-73
2023/07/27 09:21:40;;;;;;;8.13;7.32;;;16.00;99.90;;;;;;5069853;28;20441;-74
2023/07/27 09:24:10;;;;;;;8.40;7.50;;;16.00;99.90;;;;;;5070627;28;20412;-73
2023/07/27 09:26:44;;;;;;;8.60;7.80;;;15.90;99.90;;;;;;5069507;28;20430;-73
2023/07/27 09:29:11;;;;;;;9.20;8.40;;;15.90;99.90;;;;;;5067835;28;20428;-74
2023/07/27 09:31:46;;;;;;;9.23;8.35;;;16.00;99.90;;;;;;5062218;28;20514;-73
2023/07/27 09:34:13;;;;;;;8.98;8.18;;;16.00;99.90;;;;;;5066973;28;20427;-73
2023/07/27 09:36:40;;;;;;;9.10;8.30;;;16.10;99.90;;;;;;5073541;28;20496;-74
2023/07/27 09:39:07;;;;;;;8.65;7.75;;;16.10;99.90;;;;;;5066042;28;20443;-73
2023/07/27 09:41:33;;;;;;;9.50;8.60;;;16.10;99.90;;;;;;5067537;28;20899;-74
2023/07/27 09:44:02;;;;;;;9.80;8.90;;;16.10;99.90;;;;;;5068692;28;20431;-74
2023/07/27 09:46:29;;;;;;;18.85;15.00;;;16.10;99.90;;;;;;5070342;28;20434;-73
2023/07/27 09:48:58;;;;;;;12.98;11.77;;;16.10;99.90;;;;;;5064406;28;20481;-72
2023/07/27 09:51:26;;;;;;;17.10;15.50;;;16.10;99.90;;;;;;5059067;28;20542;-73
2023/07/27 09:53:54;;;;;;;11.10;10.00;;;16.00;99.90;;;;;;5069202;28;20529;-73
2023/07/27 09:56:22;;;;;;;10.35;9.35;;;16.10;99.90;;;;;;5062208;28;20900;-73
2023/07/27 09:58:49;;;;;;;10.07;9.10;;;16.10;99.90;;;;;;5065482;28;20519;-72
2023/07/27 10:01:16;;;;;;;9.37;8.57;;;16.10;99.90;;;;;;5066994;28;20442;-74
2023/07/27 10:03:44;;;;;;;9.60;8.70;;;16.20;99.90;;;;;;5060944;28;20518;-73
2023/07/27 10:06:15;;;;;;;9.37;8.57;;;16.20;99.90;;;;;;5064935;28;20908;-74
2023/07/27 10:08:42;;;;;;;9.60;8.70;;;16.30;99.90;;;;;;5063098;28;20534;-73
2023/07/27 10:11:09;;;;;;;9.45;8.65;;;16.30;99.90;;;;;;5067221;28;21238;-73
2023/07/27 10:13:38;;;;;;;9.95;8.95;;;16.30;99.90;;;;;;5065299;28;20524;-74
2023/07/27 10:16:09;;;;;;;9.18;8.38;;;16.30;99.90;;;;;;5066835;28;20466;-74
2023/07/27 10:18:41;;;;;;;9.10;8.30;;;16.40;99.90;;;;;;5074778;28;20447;-72
2023/07/27 10:21:27;;;;;;;9.27;8.48;;;16.40;99.90;;;;;;5072657;28;20751;-73
2023/07/27 10:23:56;;;;;;;9.32;8.52;;;16.50;99.90;;;;;;5054949;28;20888;-73
2023/07/27 10:26:50;;;;;;;9.00;8.20;;;16.50;99.90;;;;;;5075766;28;20741;-73
2023/07/27 10:29:19;;;;;;;9.13;8.32;;;16.60;99.90;;;;;;5072548;28;20507;-73
2023/07/27 10:31:59;;;;;;;9.52;8.68;;;16.70;99.90;;;;;;5070509;28;20412;-75
2023/07/27 10:34:27;;;;;;;9.55;8.75;;;16.70;99.90;;;;;;5088548;22;20473;-70
2023/07/27 10:36:57;;;;;;;9.32;8.52;;;16.70;99.90;;;;;;5080950;28;20409;-71
2023/07/27 10:39:27;;;;;;;10.18;9.27;;;16.70;99.90;;;;;;5086263;28;20430;-71
2023/07/27 10:42:01;;;;;;;8.95;8.18;;;16.80;99.90;;;;;;5084852;28;20484;-71
2023/07/27 10:44:28;;;;;;;8.60;7.90;;;16.90;99.90;;;;;;5081694;28;20428;-69
2023/07/27 10:46:57;;;;;;;9.30;8.45;;;16.90;99.90;;;;;;5083191;28;20441;-69
2023/07/27 10:49:24;;;;;;;8.23;7.55;;;16.90;99.90;;;;;;5081667;28;20429;-70
2023/07/27 10:51:51;;;;;;;9.02;8.13;;;16.80;99.90;;;;;;5080289;28;20426;-69
2023/07/27 10:54:19;;;;;;;9.40;8.40;;;16.80;99.90;;;;;;5077925;28;20429;-69
2023/07/27 10:56:46;;;;;;;9.52;8.27;;;16.80;99.90;;;;;;5083152;28;20517;-70
2023/07/27 10:59:15;;;;;;;8.70;8.00;;;16.80;99.90;;;;;;5087176;28;20429;-70
2023/07/27 11:01:48;;;;;;;9.48;8.48;;;16.80;99.90;;;;;;5087303;28;20442;-70
2023/07/27 11:04:15;;;;;;;8.60;7.90;;;16.90;99.90;;;;;;5082468;28;20430;-70
2023/07/27 11:06:43;;;;;;;8.13;7.32;;;16.90;99.90;;;;;;5081278;28;20803;-69
2023/07/27 11:09:11;;;;;;;8.73;7.82;;;17.00;99.90;;;;;;5084383;28;20967;-71
2023/07/27 11:11:40;;;;;;;9.30;8.40;;;17.00;99.90;;;;;;5080108;28;20437;-69
2023/07/27 11:14:07;;;;;;;8.10;7.40;;;17.10;99.90;;;;;;5079341;28;20438;-70
2023/07/27 11:16:37;;;;;;;8.55;7.80;;;17.10;99.90;;;;;;5083892;28;21113;-70
2023/07/27 11:19:04;;;;;;;7.00;6.40;;;17.10;99.90;;;;;;5085514;28;20776;-71
2023/07/27 11:21:32;;;;;;;5.70;5.20;;;17.20;99.90;;;;;;5076707;28;20422;-70
2023/07/27 11:23:59;;;;;;;3.03;2.45;;;17.20;99.90;;;;;;5086039;28;20451;-70
2023/07/27 11:26:26;;;;;;;2.78;2.20;;;17.20;99.90;;;;;;5082855;28;20418;-69
2023/07/27 11:28:55;;;;;;;1.92;1.70;;;17.30;99.90;;;;;;5082505;28;20457;-70
2023/07/27 11:31:22;;;;;;;2.60;1.95;;;17.30;99.90;;;;;;5080460;28;20442;-68
2023/07/27 11:33:49;;;;;;;1.98;1.60;;;17.40;99.90;;;;;;5083188;28;20462;-69
2023/07/27 11:36:16;;;;;;;1.90;1.58;;;17.40;99.90;;;;;;5084254;28;20457;-69
2023/07/27 11:38:43;;;;;;;4.30;1.60;;;17.40;99.90;;;;;;5081210;28;20426;-70
2023/07/27 11:41:09;;;;;;;2.97;1.70;;;17.40;99.90;;;;;;5083968;28;20426;-70
2023/07/27 11:43:39;;;;;;;1.50;1.40;;;17.40;99.90;;;;;;5078698;28;20437;-69
2023/07/27 11:46:07;;;;;;;1.42;1.10;;;17.50;99.90;;;;;;5080360;28;20504;-69
2023/07/27 11:48:35;;;;;;;1.40;1.10;;;17.60;99.90;;;;;;5083299;28;20512;-69
2023/07/27 11:51:02;;;;;;;1.67;1.02;;;17.70;99.90;;;;;;5084660;28;20419;-69
2023/07/27 11:53:29;;;;;;;1.50;0.95;;;17.90;99.90;;;;;;5086042;28;20931;-70
2023/07/27 11:55:56;;;;;;;1.40;1.00;;;18.00;99.90;;;;;;5087677;28;20430;-69
2023/07/27 11:58:26;;;;;;;1.38;1.00;;;18.10;99.90;;;;;;5082377;28;20510;-71
2023/07/27 12:00:54;;;;;;;1.80;1.23;;;18.10;99.90;;;;;;5082354;28;20917;-70
2023/07/27 12:03:25;;;;;;;1.40;1.10;;;18.20;99.90;;;;;;5084602;28;20442;-71
2023/07/27 12:05:54;;;;;;;1.95;1.10;;;18.20;99.90;;;;;;5081258;28;20499;-71
2023/07/27 12:08:21;;;;;;;1.60;0.90;;;18.20;99.90;;;;;;5087958;28;20421;-70
2023/07/27 12:10:52;;;;;;;1.27;1.00;;;18.20;99.90;;;;;;5086480;28;20422;-70
2023/07/27 12:13:22;;;;;;;1.30;1.00;;;18.20;99.90;;;;;;5083714;28;20426;-69
2023/07/27 12:15:58;;;;;;;1.80;1.10;;;18.20;99.90;;;;;;5083143;28;20426;-69
2023/07/27 12:18:27;;;;;;;1.40;1.10;;;18.20;99.90;;;;;;5087627;28;20504;-71
2023/07/27 12:20:54;;;;;;;1.90;1.20;;;18.20;99.90;;;;;;5087150;28;20467;-71
2023/07/27 12:23:21;;;;;;;2.50;1.10;;;18.20;99.90;;;;;;5082298;28;20435;-69
2023/07/27 12:25:49;;;;;;;2.70;1.43;;;18.20;99.90;;;;;;5086296;28;20999;-70
2023/07/27 12:28:15;;;;;;;3.13;2.00;;;18.20;99.90;;;;;;5078267;28;20429;-70
2023/07/27 12:30:43;;;;;;;1.50;1.15;;;18.10;99.90;;;;;;5086647;28;20884;-70
2023/07/27 12:33:10;;;;;;;1.90;1.10;;;18.00;99.90;;;;;;5086106;28;20420;-70
2023/07/27 12:35:38;;;;;;;2.90;1.40;;;17.90;99.90;;;;;;5084354;28;20441;-69
2023/07/27 12:38:06;;;;;;;2.20;1.30;;;17.80;99.90;;;;;;5080276;28;20483;-69
2023/07/27 12:40:33;;;;;;;2.85;1.30;;;17.70;99.90;;;;;;5084071;28;20647;-67
2023/07/27 12:42:59;;;;;;;11.73;3.45;;;17.70;99.90;;;;;;5087220;28;20430;-71
2023/07/27 12:45:26;;;;;;;2.53;1.30;;;17.70;99.90;;;;;;5085083;28;20549;-72
2023/07/27 12:47:54;;;;;;;2.78;1.50;;;17.70;99.90;;;;;;5081121;28;20842;-73
2023/07/27 12:50:21;;;;;;;2.50;1.40;;;17.80;99.90;;;;;;5084455;28;20421;-71